Time;durP1;ratioP1;P1;durP2;ratioP2;P2;SDS_P1;SDS_P2;PMS_P1;PMS_P2;Temp;Humidity;BMP_temperature;BMP_pressure;BME280_temperature;BME280_humidity;BME280_pressure;Samples;Min_cycle;Max_cycle;Signal;HPM_P1;HPM_P2
2022/01/25 00:33:25;;;;;;;60.95;34.53;;;;;;;2.50;88.69;103364.56;5052236;28;20045;-55
2022/01/25 00:35:50;;;;;;;55.72;32.47;;;;;;;2.44;89.21;103365.34;5052559;28;20032;-56
2022/01/25 00:38:15;;;;;;;55.90;32.55;;;;;;;2.41;88.97;103368.44;5052427;28;20026;-57
2022/01/25 00:40:41;;;;;;;55.30;32.75;;;;;;;2.38;89.08;103374.28;5052409;28;20534;-57
2022/01/25 00:43:06;;;;;;;56.45;33.83;;;;;;;2.39;89.08;103376.84;5052249;28;20029;-55
2022/01/25 00:45:31;;;;;;;56.45;33.15;;;;;;;2.39;89.83;103356.84;5052417;28;20032;-57
2022/01/25 00:47:57;;;;;;;57.67;33.15;;;;;;;2.41;89.86;103357.50;5052540;28;20033;-55
2022/01/25 00:50:23;;;;;;;59.88;33.65;;;;;;;2.42;89.32;103359.22;5052754;28;20017;-55
2022/01/25 00:55:14;;;;;;;59.80;34.92;;;;;;;2.44;90.20;103365.34;5052234;28;20052;-55
2022/01/25 00:57:40;;;;;;;56.72;33.47;;;;;;;2.42;89.34;103356.47;5051835;28;20079;-54
2022/01/25 01:00:09;;;;;;;55.05;32.58;;;;;;;2.39;89.94;103345.91;5051295;28;20025;-52
2022/01/25 01:02:35;;;;;;;56.10;32.53;;;;;;;2.44;89.33;103360.72;5051752;28;20108;-56
2022/01/25 01:05:00;;;;;;;58.28;32.58;;;;;;;2.45;89.69;103361.59;5052240;28;20112;-57
2022/01/25 01:07:25;;;;;;;58.45;33.72;;;;;;;2.44;89.51;103359.88;5034059;28;20502;-55
2022/01/25 01:09:52;;;;;;;55.55;32.10;;;;;;;2.43;89.16;103356.28;5051351;28;20021;-56
2022/01/25 01:13:04;;;;;;;56.65;33.97;;;;;;;2.39;89.27;103365.03;5051796;28;20025;-57
2022/01/25 01:31:24;;;;;;;57.97;33.78;;;;;;;2.39;89.50;103360.44;5055219;28;20036;-53
2022/01/25 01:36:59;;;;;;;58.10;33.72;;;;;;;2.39;90.03;103367.78;5055131;28;20041;-55
2022/01/25 01:39:40;;;;;;;57.65;33.70;;;;;;;2.40;90.06;103362.16;5055415;28;20104;-56
2022/01/25 01:47:36;;;;;;;60.40;34.90;;;;;;;2.38;89.52;103366.94;5054809;28;20041;-57
2022/01/25 01:50:09;;;;;;;58.80;32.95;;;;;;;2.34;89.79;103365.63;5054420;28;20025;-56
2022/01/25 01:52:34;;;;;;;58.42;33.95;;;;;;;2.36;89.38;103368.19;5054219;28;20055;-55
2022/01/25 01:54:59;;;;;;;58.67;33.80;;;;;;;2.33;89.27;103372.09;5054212;28;20021;-57
2022/01/25 01:57:25;;;;;;;56.88;33.20;;;;;;;2.35;89.67;103367.31;5053943;28;20024;-56
2022/01/25 01:59:52;;;;;;;59.35;33.53;;;;;;;2.36;89.91;103360.81;5054224;28;20051;-58
2022/01/25 02:02:18;;;;;;;58.88;33.63;;;;;;;2.37;89.92;103370.72;5053258;28;20495;-57
2022/01/25 02:04:43;;;;;;;56.75;33.00;;;;;;;2.37;89.48;103369.84;5053576;28;20037;-54
2022/01/25 02:07:08;;;;;;;56.75;32.92;;;;;;;2.37;89.84;103362.50;5054306;28;20033;-55
2022/01/25 02:09:33;;;;;;;58.03;33.47;;;;;;;2.39;89.68;103365.91;5054212;28;20025;-55
2022/01/25 02:11:59;;;;;;;58.20;34.22;;;;;;;2.40;90.00;103356.69;5054310;28;20025;-56
2022/01/25 02:14:24;;;;;;;58.45;32.80;;;;;;;2.45;90.04;103361.59;5054108;28;20039;-56
2022/01/25 02:24:44;;;;;;;58.65;33.55;;;;;;;2.49;89.69;103346.47;5054515;28;20090;-56
2022/01/25 02:27:11;;;;;;;58.70;32.65;;;;;;;2.49;89.60;103341.88;5054379;28;20101;-55
2022/01/25 02:29:37;;;;;;;60.28;32.88;;;;;;;2.50;89.82;103343.53;5053639;28;20056;-56
2022/01/25 02:32:06;;;;;;;60.30;33.53;;;;;;;2.50;89.59;103340.81;5054162;28;20460;-54
2022/01/25 02:34:31;;;;;;;59.17;33.65;;;;;;;2.50;89.55;103331.78;5053657;28;20111;-53
2022/01/25 02:37:02;;;;;;;61.83;34.00;;;;;;;2.46;88.95;103331.31;5054373;28;20128;-55
2022/01/25 02:39:28;;;;;;;58.50;32.33;;;;;;;2.41;88.76;103336.50;5053653;28;20504;-54
2022/01/25 02:41:53;;;;;;;61.75;33.97;;;;;;;2.38;89.26;103331.44;5053055;28;20103;-54
2022/01/25 02:44:24;;;;;;;58.25;32.47;;;;;;;2.41;90.02;103335.66;5055110;28;20533;-55
2022/01/25 02:49:27;;;;;;;59.10;33.15;;;;;;;2.40;89.10;103336.69;5054135;28;20037;-56
2022/01/25 02:51:53;;;;;;;59.22;34.17;;;;;;;2.36;89.66;103329.94;5053411;28;20017;-54
2022/01/25 02:54:18;;;;;;;61.33;34.63;;;;;;;2.41;89.38;103335.66;5053741;28;20024;-55
2022/01/25 02:56:44;;;;;;;60.10;33.45;;;;;;;2.41;89.31;103335.66;5053299;28;20395;-55
2022/01/25 02:59:12;;;;;;;60.45;33.92;;;;;;;2.43;89.18;103334.44;5054134;28;20025;-54
2022/01/25 03:01:38;;;;;;;58.30;33.28;;;;;;;2.43;89.13;103339.06;5053894;28;20388;-55
2022/01/25 03:04:06;;;;;;;60.65;33.80;;;;;;;2.44;89.44;103330.66;5054079;28;20033;-55
2022/01/25 03:06:31;;;;;;;61.38;33.33;;;;;;;2.46;89.11;103333.19;5053049;28;20025;-57
2022/01/25 03:08:57;;;;;;;61.55;34.08;;;;;;;2.48;88.84;103342.06;5052810;28;20081;-54
2022/01/25 03:11:24;;;;;;;60.90;33.80;;;;;;;2.44;89.05;103335.28;5052410;28;20039;-56
2022/01/25 03:13:53;;;;;;;59.55;33.42;;;;;;;2.42;89.04;103330.00;5052824;28;20444;-55
2022/01/25 03:16:35;;;;;;;61.33;35.00;;;;;;;2.39;88.99;103321.34;5052713;28;20032;-56
2022/01/25 03:19:04;;;;;;;61.45;34.38;;;;;;;2.33;89.78;103304.69;5051840;28;20136;-54
2022/01/25 03:23:56;;;;;;;61.05;33.50;;;;;;;2.42;89.83;103310.88;5052006;28;20036;-55
2022/01/25 03:26:24;;;;;;;61.30;34.75;;;;;;;2.42;89.51;103308.13;5052688;28;20036;-57
2022/01/25 03:28:50;;;;;;;57.85;33.72;;;;;;;2.43;90.11;103298.06;5053060;28;20029;-56
2022/01/25 03:31:15;;;;;;;60.97;34.60;;;;;;;2.42;89.70;103299.94;5053226;28;20126;-56
2022/01/25 03:33:41;;;;;;;60.78;33.70;;;;;;;2.40;89.24;103296.56;5053219;28;20468;-58
2022/01/25 03:36:07;;;;;;;60.72;34.90;;;;;;;2.41;89.93;103294.69;5052663;28;20035;-58
2022/01/25 03:38:34;;;;;;;60.13;33.85;;;;;;;2.40;90.20;103306.63;5052535;28;20419;-58
2022/01/25 03:41:01;;;;;;;59.97;34.38;;;;;;;2.41;89.97;103305.59;5052320;28;20017;-57
2022/01/25 03:43:26;;;;;;;64.28;35.75;;;;;;;2.41;89.41;103300.97;5052614;28;20112;-56
2022/01/25 03:46:06;;;;;;;59.42;34.35;;;;;;;2.44;89.65;103299.78;5051878;28;20436;-56
2022/01/25 03:50:57;;;;;;;59.08;33.72;;;;;;;2.46;89.25;103301.25;5052989;28;20071;-55
2022/01/25 03:53:22;;;;;;;60.63;35.10;;;;;;;2.48;89.14;103306.53;5052375;28;20045;-60
2022/01/25 03:55:48;;;;;;;63.47;36.40;;;;;;;2.48;88.97;103312.00;5053143;28;20029;-56
2022/01/25 03:58:15;;;;;;;64.63;36.38;;;;;;;2.48;88.85;103309.25;5052370;28;20025;-53
2022/01/25 04:00:41;;;;;;;65.90;36.22;;;;;;;2.45;88.78;103313.22;5052436;28;20400;-57
2022/01/25 04:03:16;;;;;;;63.50;36.28;;;;;;;2.48;88.46;103317.47;5051704;28;20029;-55
2022/01/25 04:08:07;;;;;;;65.47;37.10;;;;;;;2.47;88.22;103313.91;5052771;28;20037;-56
2022/01/25 04:10:33;;;;;;;63.42;35.78;;;;;;;2.47;88.48;103318.50;5051714;28;20075;-57
2022/01/25 04:12:59;;;;;;;62.47;35.72;;;;;;;2.49;88.71;103319.16;5052555;28;20021;-53
2022/01/25 04:15:24;;;;;;;63.33;35.25;;;;;;;2.48;88.99;103318.31;5052917;28;20037;-57
2022/01/25 04:17:58;;;;;;;66.60;37.08;;;;;;;2.51;88.49;103325.28;5050847;28;20079;-54
2022/01/25 04:20:26;;;;;;;67.18;35.60;;;;;;;2.52;87.91;103318.78;5052335;28;20487;-55
2022/01/25 04:25:35;;;;;;;65.15;35.90;;;;;;;2.50;88.52;103309.94;5052314;28;20094;-54
2022/01/25 04:28:01;;;;;;;64.55;35.38;;;;;;;2.46;88.30;103306.72;5052013;28;20033;-56
2022/01/25 04:30:26;;;;;;;64.93;36.30;;;;;;;2.42;88.60;103305.41;5052074;28;20033;-54
2022/01/25 04:32:59;;;;;;;61.67;35.42;;;;;;;2.41;88.02;103308.34;5052307;28;20025;-55
2022/01/25 04:54:21;;;;;;;64.30;35.35;;;;;;;2.45;88.08;103301.47;5055572;28;20047;-56
2022/01/25 04:57:08;;;;;;;65.13;36.47;;;;;;;2.43;88.36;103296.19;5056347;28;20499;-55
2022/01/25 04:59:47;;;;;;;64.72;35.60;;;;;;;2.43;88.74;103298.91;5055699;28;20391;-56
2022/01/25 05:02:19;;;;;;;64.60;35.63;;;;;;;2.42;88.76;103296.38;5055979;28;20391;-54
2022/01/25 05:04:56;;;;;;;62.60;35.60;;;;;;;2.42;88.90;103291.75;5055815;28;20107;-56
2022/01/25 05:09:51;;;;;;;65.55;35.88;;;;;;;2.48;88.98;103299.19;5055981;28;20037;-55
2022/01/25 05:12:17;;;;;;;66.32;36.42;;;;;;;2.49;88.96;103292.69;5055362;28;20021;-54
2022/01/25 05:14:59;;;;;;;64.15;35.78;;;;;;;2.47;89.04;103297.50;5055357;28;20029;-53
2022/01/25 05:17:34;;;;;;;63.33;36.33;;;;;;;2.44;88.84;103294.31;5056009;28;20033;-54
2022/01/25 05:22:44;;;;;;;63.85;36.17;;;;;;;2.41;89.73;103300.97;5055279;28;20120;-53
2022/01/25 05:25:09;;;;;;;62.85;36.97;;;;;;;2.43;89.89;103292.59;5055181;28;20452;-55
2022/01/25 05:27:35;;;;;;;67.72;35.95;;;;;;;2.46;89.43;103294.94;5055637;28;20419;-53
2022/01/25 05:30:00;;;;;;;64.32;37.03;;;;;;;2.45;90.16;103287.81;5054656;28;20029;-54
2022/01/25 05:32:27;;;;;;;66.57;36.17;;;;;;;2.45;89.38;103291.38;5055102;28;20025;-54
2022/01/25 05:34:52;;;;;;;66.40;36.33;;;;;;;2.47;89.86;103292.03;5055236;28;20067;-53
2022/01/25 05:37:17;;;;;;;68.43;37.25;;;;;;;2.48;89.92;103292.88;5054968;28;20091;-55
2022/01/25 05:39:45;;;;;;;64.03;35.83;;;;;;;2.47;89.13;103294.75;5055218;28;20028;-56
2022/01/25 05:47:43;;;;;;;67.65;35.97;;;;;;;2.47;90.06;103285.69;5054681;28;20045;-56
2022/01/25 05:50:09;;;;;;;65.60;37.55;;;;;;;2.46;90.16;103287.59;5054952;28;20114;-57
2022/01/25 05:52:35;;;;;;;65.35;36.35;;;;;;;2.48;89.38;103290.13;5054932;28;20086;-57
2022/01/25 05:55:01;;;;;;;65.75;36.88;;;;;;;2.48;89.27;103290.13;5055255;28;20053;-58
2022/01/25 05:57:27;;;;;;;63.38;36.50;;;;;;;2.46;89.00;103292.19;5055219;28;20025;-57
2022/01/25 05:59:53;;;;;;;66.57;37.17;;;;;;;2.45;89.65;103296.00;5054262;28;20025;-57
2022/01/25 06:02:20;;;;;;;63.42;36.33;;;;;;;2.45;89.65;103285.91;5053256;28;20036;-57
2022/01/25 06:04:46;;;;;;;68.65;37.90;;;;;;;2.46;89.99;103290.34;5053770;28;20029;-56
2022/01/25 06:07:12;;;;;;;65.70;36.70;;;;;;;2.45;89.79;103283.16;5054455;28;20135;-55
2022/01/25 06:09:38;;;;;;;63.05;34.58;;;;;;;2.46;89.75;103284.88;5054871;28;20025;-55
2022/01/25 06:12:03;;;;;;;67.72;37.38;;;;;;;2.44;89.81;103286.09;5054955;28;20036;-55
2022/01/25 06:14:29;;;;;;;63.58;35.65;;;;;;;2.43;90.05;103282.50;5054783;28;20025;-59
2022/01/25 06:16:54;;;;;;;63.75;36.78;;;;;;;2.43;89.61;103284.41;5054724;28;20094;-55
2022/01/25 06:19:19;;;;;;;66.32;36.30;;;;;;;2.43;89.32;103282.50;5054812;28;20425;-56
2022/01/25 06:21:44;;;;;;;67.63;36.15;;;;;;;2.43;89.74;103281.69;5054437;28;20031;-54
2022/01/25 06:24:10;;;;;;;65.15;36.85;;;;;;;2.43;89.44;103287.97;5054739;28;20021;-56
2022/01/25 06:26:35;;;;;;;63.00;36.65;;;;;;;2.47;89.21;103291.16;5054632;28;20036;-55
2022/01/25 06:29:01;;;;;;;66.38;37.08;;;;;;;2.43;89.08;103287.97;5054620;28;20021;-55
2022/01/25 06:31:28;;;;;;;66.22;37.70;;;;;;;2.42;88.62;103288.19;5054658;28;20028;-56
2022/01/25 06:33:53;;;;;;;62.15;34.33;;;;;;;2.40;89.90;103279.31;5054797;28;20071;-55
2022/01/25 06:36:19;;;;;;;65.75;37.80;;;;;;;2.42;89.66;103283.53;5054296;28;20029;-56
2022/01/25 06:38:44;;;;;;;67.43;37.33;;;;;;;2.41;88.42;103289.22;5054461;28;20029;-55
2022/01/25 06:41:10;;;;;;;72.20;38.10;;;;;;;2.42;88.12;103278.09;5054246;28;20044;-55
2022/01/25 06:43:37;;;;;;;66.22;35.80;;;;;;;2.44;88.41;103284.22;5054271;28;20020;-55
2022/01/25 06:46:03;;;;;;;70.70;37.40;;;;;;;2.45;88.55;103285.06;5054456;28;20028;-57
2022/01/25 06:48:29;;;;;;;66.85;36.88;;;;;;;2.48;88.56;103290.13;5053244;28;20020;-56
2022/01/25 06:50:54;;;;;;;69.72;37.88;;;;;;;2.49;88.51;103291.84;5054126;28;20033;-57
2022/01/25 06:53:20;;;;;;;67.60;38.15;;;;;;;2.52;88.21;103293.31;5053919;28;20485;-56
2022/01/25 06:55:46;;;;;;;71.18;38.25;;;;;;;2.52;87.64;103291.47;5053753;28;20029;-57
2022/01/25 06:58:11;;;;;;;67.78;37.75;;;;;;;2.50;87.97;103290.78;5053466;28;20087;-56
2022/01/25 07:00:37;;;;;;;65.93;37.38;;;;;;;2.49;87.61;103289.09;5053724;28;20483;-55
2022/01/25 07:03:03;;;;;;;64.15;36.90;;;;;;;2.51;88.02;103300.69;5054327;28;20033;-57
2022/01/25 07:05:28;;;;;;;68.97;37.15;;;;;;;2.52;88.14;103298.78;5053829;28;20025;-57
2022/01/25 07:07:53;;;;;;;68.82;37.00;;;;;;;2.53;88.00;103295.88;5053950;28;20057;-56
2022/01/25 07:10:20;;;;;;;76.65;39.67;;;;;;;2.52;85.88;103305.13;5053814;28;20468;-59
2022/01/25 07:12:45;;;;;;;72.85;40.33;;;;;;;2.53;85.92;103301.34;5052414;28;20373;-56
2022/01/25 07:15:11;;;;;;;64.38;37.50;;;;;;;2.55;86.69;103299.25;5053539;28;20108;-56
2022/01/25 07:17:36;;;;;;;65.45;38.08;;;;;;;2.56;86.55;103298.22;5053555;28;20025;-56
2022/01/25 07:20:04;;;;;;;68.47;38.30;;;;;;;2.56;85.84;103306.41;5053653;28;20116;-55
2022/01/25 07:22:29;;;;;;;71.88;39.05;;;;;;;2.50;86.71;103310.75;5051836;28;20055;-55
2022/01/25 07:24:54;;;;;;;67.13;37.88;;;;;;;2.49;86.54;103316.44;5053338;28;20060;-55
2022/01/25 07:27:19;;;;;;;66.57;37.95;;;;;;;2.49;87.08;103317.28;5052072;28;20033;-55
2022/01/25 07:29:45;;;;;;;70.10;38.38;;;;;;;2.49;86.19;103310.97;5051830;28;20391;-53
2022/01/25 07:32:10;;;;;;;64.28;38.15;;;;;;;2.53;86.86;103312.28;5053150;28;20025;-54
2022/01/25 07:34:35;;;;;;;70.72;38.92;;;;;;;2.56;86.18;103308.31;5052562;28;20539;-53
2022/01/25 07:37:00;;;;;;;68.22;40.00;;;;;;;2.55;85.53;103307.44;5053293;28;20029;-56
2022/01/25 07:39:26;;;;;;;79.90;41.13;;;;;;;2.55;85.22;103318.38;5053124;28;20029;-55
2022/01/25 07:41:56;;;;;;;75.85;41.80;;;;;;;2.58;85.24;103315.28;5051209;28;20025;-52
2022/01/25 07:44:26;;;;;;;76.35;40.38;;;;;;;2.59;85.33;103316.97;5052848;28;20111;-53
2022/01/25 07:46:51;;;;;;;68.97;37.05;;;;;;;2.58;85.31;103309.81;5053141;28;20052;-53
2022/01/25 07:49:17;;;;;;;76.63;39.22;;;;;;;2.58;85.07;103318.00;5054268;28;20059;-52
2022/01/25 07:51:42;;;;;;;68.95;38.92;;;;;;;2.58;85.18;103303.50;5066139;28;20407;-52
2022/01/25 07:54:07;;;;;;;77.40;39.75;;;;;;;2.58;84.86;103306.25;5053327;28;20040;-53
2022/01/25 07:56:33;;;;;;;74.32;40.15;;;;;;;2.59;85.20;103311.50;5066774;28;20392;-52
2022/01/25 07:58:58;;;;;;;74.78;40.38;;;;;;;2.61;85.06;103303.09;5050183;28;20108;-52
2022/01/25 08:01:24;;;;;;;77.10;40.70;;;;;;;2.62;84.49;103310.28;5050373;28;20476;-48
2022/01/25 08:03:49;;;;;;;72.75;40.72;;;;;;;2.60;83.66;103310.47;5050966;28;20036;-52
2022/01/25 08:06:14;;;;;;;73.00;40.55;;;;;;;2.59;84.04;103307.94;5050951;28;20036;-52
2022/01/25 08:08:40;;;;;;;80.68;40.78;;;;;;;2.59;84.69;103308.78;5050718;28;20033;-50
2022/01/25 08:11:06;;;;;;;77.05;42.72;;;;;;;2.61;84.84;103303.97;5050724;28;20064;-54
2022/01/25 08:13:31;;;;;;;90.50;45.35;;;;;;;2.61;84.58;103308.56;5050341;28;20100;-53
2022/01/25 08:15:57;;;;;;;80.80;42.55;;;;;;;2.59;82.86;103322.44;5050958;28;20029;-51
2022/01/25 08:18:22;;;;;;;78.10;41.60;;;;;;;2.58;83.63;103315.28;5051452;28;20024;-50
2022/01/25 08:20:48;;;;;;;81.95;42.00;;;;;;;2.58;83.94;103326.22;5051382;28;20472;-49
2022/01/25 08:23:13;;;;;;;73.20;39.83;;;;;;;2.61;84.25;103314.91;5047537;28;20032;-50
2022/01/25 08:25:39;;;;;;;72.05;39.15;;;;;;;2.63;84.51;103318.31;5041544;28;20026;-49
2022/01/25 08:28:04;;;;;;;75.95;40.47;;;;;;;2.69;84.65;103318.56;5046978;28;20791;-48
2022/01/25 08:30:30;;;;;;;75.88;41.10;;;;;;;2.71;84.37;103319.22;5055064;28;20082;-50
2022/01/25 08:32:55;;;;;;;82.25;42.72;;;;;;;2.73;83.33;103322.63;5054652;28;20103;-50
2022/01/25 08:35:20;;;;;;;81.95;42.38;;;;;;;2.73;82.42;103317.97;5054138;28;20044;-50
2022/01/25 08:37:46;;;;;;;82.47;41.90;;;;;;;2.70;82.69;103318.34;5053964;28;20108;-47
2022/01/25 08:40:11;;;;;;;81.32;42.53;;;;;;;2.77;83.07;103321.16;5053504;28;20036;-49
2022/01/25 08:42:37;;;;;;;82.20;43.13;;;;;;;2.78;82.46;103326.47;5053648;28;20028;-49
2022/01/25 08:45:05;;;;;;;79.63;42.65;;;;;;;2.75;82.74;103323.25;5053801;28;20446;-49
2022/01/25 08:47:31;;;;;;;82.00;41.83;;;;;;;2.82;83.09;103326.94;5054271;28;20113;-51
2022/01/25 08:49:56;;;;;;;81.18;41.67;;;;;;;2.83;82.67;103330.50;5053692;28;20115;-51
2022/01/25 08:52:21;;;;;;;79.88;41.75;;;;;;;2.82;82.96;103318.72;5053617;28;20132;-51
2022/01/25 08:54:47;;;;;;;82.32;42.08;;;;;;;2.85;82.53;103331.16;5054115;28;20021;-52
2022/01/25 08:57:12;;;;;;;77.32;40.63;;;;;;;2.86;81.24;103327.38;5054189;28;20127;-47
2022/01/25 08:59:37;;;;;;;81.35;41.55;;;;;;;2.88;82.28;103331.63;5053931;28;20051;-53
2022/01/25 09:02:03;;;;;;;80.93;42.55;;;;;;;2.87;81.67;103329.91;5053567;28;20028;-51
2022/01/25 09:04:28;;;;;;;81.75;43.30;;;;;;;2.91;82.09;103333.09;5053678;28;20076;-48
2022/01/25 09:06:53;;;;;;;79.22;41.42;;;;;;;2.92;82.12;103337.53;5053586;28;20095;-50
2022/01/25 09:09:20;;;;;;;83.45;41.85;;;;;;;2.94;82.85;103335.47;5053610;28;20499;-49
2022/01/25 09:11:45;;;;;;;78.25;41.63;;;;;;;2.95;82.18;103337.16;5052802;28;20040;-53
2022/01/25 09:14:11;;;;;;;74.28;41.20;;;;;;;2.96;82.03;103341.59;5053165;28;20028;-49
2022/01/25 09:16:38;;;;;;;78.97;41.38;;;;;;;3.00;82.33;103344.78;5053187;28;20392;-51
2022/01/25 09:19:04;;;;;;;77.88;42.20;;;;;;;3.03;81.71;103339.78;5056847;28;20082;-50
2022/01/25 09:21:30;;;;;;;83.00;43.05;;;;;;;2.99;80.13;103332.97;5054703;28;20025;-50
2022/01/25 09:23:55;;;;;;;82.07;42.38;;;;;;;2.98;81.29;103334.03;5058391;28;20183;-51
2022/01/25 09:26:22;;;;;;;79.50;42.67;;;;;;;3.02;82.17;103342.72;5054822;28;20029;-50
2022/01/25 09:28:50;;;;;;;80.03;43.08;;;;;;;2.99;81.39;103340.34;5069410;28;20055;-49
2022/01/25 09:31:16;;;;;;;82.82;43.83;;;;;;;3.00;80.86;103344.78;5058577;28;20040;-50
2022/01/25 09:33:41;;;;;;;76.07;41.17;;;;;;;3.02;81.03;103351.75;5070287;28;20021;-51
2022/01/25 09:36:07;;;;;;;83.35;43.22;;;;;;;3.00;81.03;103353.81;5063473;28;20029;-49
2022/01/25 09:38:32;;;;;;;77.13;41.95;;;;;;;3.03;81.76;103353.44;5062156;28;20028;-51
2022/01/25 09:40:57;;;;;;;78.47;43.13;;;;;;;3.06;81.31;103347.59;5069606;28;20028;-52
2022/01/25 09:43:24;;;;;;;80.82;40.40;;;;;;;3.10;81.80;103354.38;5058511;28;20025;-53
2022/01/25 09:45:50;;;;;;;78.72;42.13;;;;;;;3.12;80.75;103349.56;5067670;28;20028;-51
2022/01/25 09:48:16;;;;;;;81.70;41.15;;;;;;;3.16;81.12;103349.19;5063156;28;20024;-52
2022/01/25 09:50:42;;;;;;;74.90;41.28;;;;;;;3.14;80.14;103356.72;5061336;28;20021;-53
2022/01/25 09:53:10;;;;;;;75.72;39.45;;;;;;;3.19;81.53;103352.38;5071497;28;20405;-53
2022/01/25 09:55:39;;;;;;;78.30;41.45;;;;;;;3.16;81.21;103344.53;5054168;28;20033;-51
2022/01/25 09:58:04;;;;;;;70.72;38.08;;;;;;;3.28;82.18;103361.28;5062459;28;20479;-53
2022/01/25 10:00:32;;;;;;;74.72;40.53;;;;;;;3.35;82.97;103361.34;5074798;28;20028;-53
2022/01/25 10:03:10;;;;;;;74.78;39.88;;;;;;;3.35;81.05;103364.94;5074690;28;20028;-49
2022/01/25 10:05:38;;;;;;;71.82;38.58;;;;;;;3.34;81.29;103349.56;5074665;28;20797;-54
2022/01/25 10:08:10;;;;;;;75.85;40.33;;;;;;;3.39;79.12;103360.75;5073133;28;20424;-52
2022/01/25 10:10:50;;;;;;;78.47;41.88;;;;;;;3.36;79.23;103363.03;5074684;28;20029;-49
2022/01/25 10:13:25;;;;;;;69.32;37.88;;;;;;;3.40;79.51;103356.16;5074176;28;20028;-51
2022/01/25 10:15:55;;;;;;;78.00;42.00;;;;;;;3.41;79.61;103363.28;5068401;28;20032;-52
2022/01/25 10:18:20;;;;;;;75.50;40.17;;;;;;;3.46;79.69;103374.50;5066718;28;20067;-52
2022/01/25 10:20:48;;;;;;;76.18;40.90;;;;;;;3.39;79.03;103358.03;5053087;28;20545;-51
2022/01/25 10:23:20;;;;;;;73.68;40.97;;;;;;;3.41;79.38;103353.22;5054744;28;20380;-50
2022/01/25 10:25:47;;;;;;;73.63;39.25;;;;;;;3.41;77.94;103355.94;5053541;28;20029;-51
2022/01/25 10:28:14;;;;;;;74.70;40.10;;;;;;;3.44;78.60;103368.38;5054312;28;20028;-53
2022/01/25 10:30:49;;;;;;;75.07;41.17;;;;;;;3.44;78.94;103371.13;5054282;28;20043;-50
2022/01/25 10:33:40;;;;;;;77.78;41.20;;;;;;;3.48;79.36;103366.97;5054306;28;20082;-50
2022/01/25 10:36:17;;;;;;;69.50;39.28;;;;;;;3.53;79.54;103363.63;5062304;28;20548;-50
2022/01/25 10:38:47;;;;;;;72.88;40.03;;;;;;;3.58;79.81;103361.13;5061949;28;20021;-50
2022/01/25 10:41:24;;;;;;;75.20;41.38;;;;;;;3.52;79.37;103348.25;5069989;28;20478;-52
2022/01/25 10:43:54;;;;;;;68.22;38.65;;;;;;;3.68;79.88;103349.88;5045984;28;20029;-52
2022/01/25 10:46:24;;;;;;;75.20;41.10;;;;;;;3.71;78.52;103346.72;5059434;28;20032;-52
2022/01/25 10:49:01;;;;;;;77.32;39.83;;;;;;;3.81;79.17;103351.88;5064012;28;20082;-53
2022/01/25 10:51:33;;;;;;;75.85;41.20;;;;;;;3.74;77.30;103360.84;5055146;28;20040;-52
2022/01/25 10:54:06;;;;;;;71.00;39.63;;;;;;;3.75;78.99;103358.97;5065570;28;20170;-51
2022/01/25 10:56:48;;;;;;;;;;;;;;;3.80;78.57;103350.16;5057514;28;20025;-52
2022/01/25 10:59:21;;;;;;;71.68;39.30;;;;;;;3.76;78.23;103344.25;5067858;28;19913;-53
2022/01/25 11:02:06;;;;;;;73.90;39.15;;;;;;;3.75;78.20;103348.84;5063913;28;20031;-53
2022/01/25 11:04:39;;;;;;;72.10;39.47;;;;;;;3.64;77.30;103345.81;5056205;28;20040;-50
2022/01/25 11:07:07;;;;;;;75.15;37.95;;;;;;;3.69;77.92;103340.59;5068670;28;20564;-51
2022/01/25 11:09:39;;;;;;;77.15;39.88;;;;;;;3.74;77.50;103354.53;5061976;28;20048;-49
2022/01/25 11:12:08;;;;;;;75.82;40.25;;;;;;;3.72;77.27;103356.63;5060355;28;20029;-51
2022/01/25 11:17:20;;;;;;;72.88;39.25;;;;;;;3.75;77.13;103367.19;5060876;28;20035;-53
2022/01/25 11:19:46;;;;;;;75.45;39.15;;;;;;;3.78;77.22;103364.03;5062925;28;20044;-50
2022/01/25 11:22:12;;;;;;;73.32;39.28;;;;;;;3.73;76.14;103364.63;5053321;28;20025;-49
2022/01/25 11:24:39;;;;;;;77.32;41.65;;;;;;;3.75;77.38;103356.25;5033623;28;20445;-52
2022/01/25 11:27:07;;;;;;;72.57;40.50;;;;;;;3.68;77.36;103347.97;5033382;28;20045;-51
2022/01/25 11:29:34;;;;;;;77.72;40.20;;;;;;;3.72;76.39;103356.63;5043756;28;20064;-54
2022/01/25 11:32:05;;;;;;;76.40;39.47;;;;;;;3.71;77.28;103361.28;5054363;28;20033;-49
2022/01/25 11:34:33;;;;;;;75.07;39.50;;;;;;;3.69;76.50;103359.75;5068609;28;20069;-50
2022/01/25 11:37:04;;;;;;;76.72;40.65;;;;;;;3.64;76.63;103357.59;5054195;28;20029;-53
2022/01/25 11:39:31;;;;;;;71.82;38.63;;;;;;;3.63;76.10;103360.53;5065568;28;20035;-53
2022/01/25 11:42:06;;;;;;;76.30;40.50;;;;;;;3.55;77.50;103361.53;5056094;28;20028;-51
2022/01/25 11:44:33;;;;;;;71.47;38.85;;;;;;;3.59;77.96;103360.94;5067161;28;20025;-50
2022/01/25 11:47:10;;;;;;;71.68;37.92;;;;;;;3.66;77.73;103362.91;5061694;28;20476;-50
2022/01/25 11:49:53;;;;;;;72.47;38.40;;;;;;;3.74;77.49;103363.59;5059457;28;20025;-52
2022/01/25 11:52:20;;;;;;;74.13;38.85;;;;;;;3.79;77.79;103360.25;5071392;28;20050;-52
2022/01/25 11:54:45;;;;;;;78.55;41.00;;;;;;;3.83;75.99;103360.69;5055490;28;20165;-53
2022/01/25 11:57:17;;;;;;;71.68;37.92;;;;;;;3.80;76.64;103350.16;5053481;28;20079;-54
2022/01/25 11:59:50;;;;;;;75.28;40.03;;;;;;;3.86;76.75;103363.06;5053302;28;20068;-51
2022/01/25 12:02:34;;;;;;;73.70;40.03;;;;;;;3.79;75.61;103354.78;5051831;28;20037;-51
2022/01/25 12:05:04;;;;;;;78.38;41.25;;;;;;;3.74;75.60;103360.84;5073177;28;20367;-51
2022/01/25 12:07:36;;;;;;;81.13;40.28;;;;;;;3.68;76.29;103352.59;5073083;28;20085;-52
2022/01/25 12:10:13;;;;;;;74.13;38.42;;;;;;;3.69;77.24;103346.91;5073400;28;20032;-50
2022/01/25 12:12:40;;;;;;;79.22;41.60;;;;;;;3.72;77.29;103335.59;5072381;28;20522;-50
2022/01/25 12:15:12;;;;;;;78.18;39.55;;;;;;;3.66;76.07;103336.34;5072117;28;20032;-53
2022/01/25 12:17:37;;;;;;;76.82;38.92;;;;;;;3.69;77.60;103340.59;5061318;28;20132;-51
2022/01/25 12:20:18;;;;;;;79.50;42.22;;;;;;;3.65;76.26;103334.66;5052073;28;20105;-52
2022/01/25 12:22:47;;;;;;;76.15;40.22;;;;;;;3.64;76.60;103334.88;5052182;28;20033;-52
2022/01/25 12:27:43;;;;;;;76.30;40.07;;;;;;;3.61;76.66;103329.78;5052098;28;20041;-50
2022/01/25 12:30:12;;;;;;;73.72;39.28;;;;;;;3.52;77.93;103327.19;5052237;28;20350;-51
2022/01/25 12:32:51;;;;;;;75.75;39.97;;;;;;;3.59;78.13;103319.88;5051654;28;20090;-50
2022/01/25 12:35:18;;;;;;;74.15;37.97;;;;;;;3.66;77.24;103330.88;5052397;28;20037;-52
2022/01/25 12:37:43;;;;;;;73.82;38.53;;;;;;;3.69;77.43;103327.75;5051729;28;20081;-50
2022/01/25 12:40:31;;;;;;;76.07;39.75;;;;;;;3.74;77.10;103325.25;5052180;28;20083;-50
2022/01/25 12:42:58;;;;;;;79.25;40.08;;;;;;;3.70;76.96;103318.50;5052035;28;20017;-52
2022/01/25 12:45:26;;;;;;;76.55;39.63;;;;;;;3.72;77.31;103321.03;5052082;28;20037;-51
2022/01/25 12:47:55;;;;;;;75.82;38.97;;;;;;;3.75;77.23;103323.38;5051575;28;20095;-50
2022/01/25 12:50:21;;;;;;;79.75;40.28;;;;;;;3.77;76.68;103317.69;5051877;28;20091;-54
2022/01/25 12:52:46;;;;;;;74.07;38.00;;;;;;;3.78;76.96;103312.00;5052358;28;20053;-52
2022/01/25 12:55:13;;;;;;;74.15;38.38;;;;;;;3.84;76.76;103311.22;5051990;28;20481;-50
2022/01/25 12:57:52;;;;;;;76.97;39.95;;;;;;;3.90;77.15;103306.84;5052164;28;20442;-50
2022/01/25 13:00:17;;;;;;;69.90;38.70;;;;;;;3.92;76.79;103303.91;5051264;28;20036;-53
2022/01/25 13:02:43;;;;;;;78.38;40.88;;;;;;;3.89;76.69;103300.50;5051558;28;20029;-54
2022/01/25 13:05:17;;;;;;;75.85;38.40;;;;;;;3.89;76.53;103303.25;5051457;28;20029;-52
2022/01/25 13:07:42;;;;;;;74.70;37.58;;;;;;;3.93;76.69;103297.38;5049620;28;20040;-53
2022/01/25 13:10:11;;;;;;;83.15;42.15;;;;;;;3.93;76.38;103294.63;5050199;28;20028;-51
2022/01/25 13:12:47;;;;;;;76.82;40.60;;;;;;;3.89;75.14;103284.06;5050951;28;20025;-53
2022/01/25 13:15:39;;;;;;;77.00;40.47;;;;;;;3.83;75.22;103284.91;5052215;28;20092;-53